Time,TemperatureF,DewpointF,PressureIn,WindDirection,WindDirectionDegrees,WindSpeedMPH,WindSpeedGustMPH,Humidity,HourlyPrecipIn,Conditions,Clouds,dailyrainin,SoftwareType,DateUTC
2013-12-14 00:06:00,61.6,59.0,30.13,ENE,62,0.0,1.0,91,0.00,,,0.00,weatherlink.com 1.10,2013-12-14 05:06:00,
2013-12-14 00:21:00,62.2,59.0,30.12,ENE,62,0.0,1.0,89,0.00,,,0.00,weatherlink.com 1.10,2013-12-14 05:21:00,
2013-12-14 00:36:00,62.5,59.0,30.11,ENE,62,0.0,1.0,89,0.00,,,0.00,weatherlink.com 1.10,2013-12-14 05:36:00,
2013-12-14 00:51:00,62.4,59.0,30.11,ENE,63,0.0,4.0,89,0.00,,,0.00,weatherlink.com 1.10,2013-12-14 05:51:00,
2013-12-14 01:06:00,62.5,60.0,30.11,ENE,68,0.0,4.0,90,0.00,,,0.00,weatherlink.com 1.10,2013-12-14 06:06:00,
2013-12-14 01:21:00,62.3,59.0,30.11,ENE,68,1.0,2.0,90,0.00,,,0.00,weatherlink.com 1.10,2013-12-14 06:21:00,
2013-12-14 01:36:00,62.3,60.0,30.10,ESE,110,3.0,6.0,91,0.00,,,0.00,weatherlink.com 1.10,2013-12-14 06:36:00,
2013-12-14 01:51:00,62.7,60.0,30.10,ESE,110,0.0,3.0,91,0.00,,,0.00,weatherlink.com 1.10,2013-12-14 06:51:00,
2013-12-14 02:06:00,63.0,60.0,30.09,ESE,109,0.0,4.0,91,0.00,,,0.00,weatherlink.com 1.10,2013-12-14 07:06:00,
2013-12-14 02:21:00,63.2,61.0,30.09,ESE,123,0.0,6.0,91,0.00,,,0.00,weatherlink.com 1.10,2013-12-14 07:21:00,
2013-12-14 02:36:00,63.3,61.0,30.09,ESE,122,2.0,3.0,91,0.00,,,0.00,weatherlink.com 1.10,2013-12-14 07:36:00,
2013-12-14 02:51:00,63.3,61.0,30.08,ESE,121,0.0,4.0,92,0.00,,,0.00,weatherlink.com 1.10,2013-12-14 07:51:00,
2013-12-14 03:06:00,63.4,61.0,30.08,ESE,109,0.0,4.0,92,0.00,,,0.00,weatherlink.com 1.10,2013-12-14 08:06:00,
2013-12-14 03:21:00,63.3,61.0,30.08,ESE,116,0.0,4.0,92,0.00,,,0.00,weatherlink.com 1.10,2013-12-14 08:21:00,
2013-12-14 03:36:00,63.2,61.0,30.08,ESE,115,0.0,4.0,93,0.00,,,0.00,weatherlink.com 1.10,2013-12-14 08:36:00,
2013-12-14 03:51:00,63.3,61.0,30.07,ESE,113,3.0,4.0,93,0.00,,,0.00,weatherlink.com 1.10,2013-12-14 08:51:00,
2013-12-14 04:06:00,63.6,62.0,30.07,ESE,115,3.0,4.0,94,0.00,,,0.00,weatherlink.com 1.10,2013-12-14 09:06:00,
2013-12-14 04:21:00,63.9,62.0,30.07,SE,124,1.0,7.0,94,0.00,,,0.00,weatherlink.com 1.10,2013-12-14 09:21:00,
2013-12-14 04:36:00,64.2,63.0,30.07,SE,135,1.0,7.0,94,0.00,,,0.00,weatherlink.com 1.10,2013-12-14 09:36:00,
2013-12-14 04:51:00,64.4,63.0,30.06,SE,128,0.0,8.0,94,0.00,,,0.00,weatherlink.com 1.10,2013-12-14 09:51:00,
2013-12-14 05:06:00,64.5,63.0,30.07,SE,126,2.0,5.0,94,0.00,,,0.00,weatherlink.com 1.10,2013-12-14 10:06:00,
2013-12-14 05:21:00,64.5,63.0,30.07,ESE,118,0.0,8.0,94,0.00,,,0.00,weatherlink.com 1.10,2013-12-14 10:21:00,
2013-12-14 05:36:00,64.4,63.0,30.07,SE,130,0.0,4.0,94,0.00,,,0.00,weatherlink.com 1.10,2013-12-14 10:36:00,
2013-12-14 05:51:00,64.6,63.0,30.07,SE,131,0.0,8.0,95,0.00,,,0.00,weatherlink.com 1.10,2013-12-14 10:51:00,
2013-12-14 06:06:00,64.9,64.0,30.07,ESE,116,0.0,6.0,95,0.00,,,0.00,weatherlink.com 1.10,2013-12-14 11:06:00,
2013-12-14 06:21:00,65.1,64.0,30.07,ESE,113,0.0,7.0,95,0.00,,,0.00,weatherlink.com 1.10,2013-12-14 11:21:00,
2013-12-14 06:36:00,65.2,64.0,30.07,ESE,121,1.0,6.0,95,0.00,,,0.00,weatherlink.com 1.10,2013-12-14 11:36:00,
2013-12-14 06:51:00,65.3,64.0,30.07,SE,126,3.0,7.0,95,0.00,,,0.00,weatherlink.com 1.10,2013-12-14 11:51:00,
2013-12-14 07:06:00,65.6,65.0,30.08,ESE,121,2.0,7.0,96,0.00,,,0.00,weatherlink.com 1.10,2013-12-14 12:06:00,
2013-12-14 07:21:00,66.0,65.0,30.08,North,-999,-999.0,-999.0,95,0.00,,,0.00,weatherlink.com 1.10,2013-12-14 12:21:00,
2013-12-14 07:36:00,66.5,65.0,30.09,North,-999,-999.0,-999.0,95,0.00,,,0.00,weatherlink.com 1.10,2013-12-14 12:36:00,
2013-12-14 07:51:00,67.3,66.0,30.09,North,-999,-999.0,-999.0,95,0.00,,,0.00,weatherlink.com 1.10,2013-12-14 12:51:00,
2013-12-14 08:06:00,67.9,66.0,30.10,North,-999,-999.0,-999.0,94,0.00,,,0.00,weatherlink.com 1.10,2013-12-14 13:06:00,
2013-12-14 08:22:00,68.2,67.0,30.10,North,-999,-999.0,-999.0,94,0.00,,,0.00,weatherlink.com 1.10,2013-12-14 13:22:00,
2013-12-14 08:37:00,68.9,67.0,30.09,North,-999,-999.0,-999.0,93,0.00,,,0.00,weatherlink.com 1.10,2013-12-14 13:37:00,
2013-12-14 08:52:00,69.9,68.0,30.09,North,-999,-999.0,-999.0,92,0.00,,,0.00,weatherlink.com 1.10,2013-12-14 13:52:00,
2013-12-14 09:07:00,71.5,69.0,30.10,North,-999,-999.0,-999.0,91,0.00,,,0.00,weatherlink.com 1.10,2013-12-14 14:07:00,
2013-12-14 09:22:00,71.8,69.0,30.10,SE,134,5.0,9.0,90,0.00,,,0.00,weatherlink.com 1.10,2013-12-14 14:22:00,
2013-12-14 09:37:00,73.7,70.0,30.10,ESE,107,0.0,13.0,87,0.00,,,0.00,weatherlink.com 1.10,2013-12-14 14:37:00,
2013-12-14 09:52:00,73.5,70.0,30.10,SE,126,0.0,10.0,87,0.00,,,0.00,weatherlink.com 1.10,2013-12-14 14:52:00,
2013-12-14 10:07:00,75.0,70.0,30.10,SE,131,7.0,15.0,84,0.00,,,0.00,weatherlink.com 1.10,2013-12-14 15:07:00,
2013-12-14 10:22:00,75.7,71.0,30.09,ESE,119,11.0,15.0,84,0.00,,,0.00,weatherlink.com 1.10,2013-12-14 15:22:00,
2013-12-14 10:37:00,76.0,71.0,30.08,SE,146,3.0,15.0,84,0.00,,,0.00,weatherlink.com 1.10,2013-12-14 15:37:00,
2013-12-14 10:52:00,77.1,71.0,30.08,SSE,153,9.0,16.0,82,0.00,,,0.00,weatherlink.com 1.10,2013-12-14 15:52:00,
2013-12-14 11:07:00,77.9,71.0,30.07,SSE,148,3.0,11.0,79,0.00,,,0.00,weatherlink.com 1.10,2013-12-14 16:07:00,
2013-12-14 11:22:00,78.1,71.0,30.07,South,175,8.0,15.0,78,0.00,,,0.00,weatherlink.com 1.10,2013-12-14 16:22:00,
2013-12-14 11:37:00,78.4,71.0,30.06,South,173,6.0,11.0,78,0.00,,,0.00,weatherlink.com 1.10,2013-12-14 16:37:00,
2013-12-14 11:52:00,78.1,70.0,30.05,SE,128,12.0,13.0,77,0.00,,,0.00,weatherlink.com 1.10,2013-12-14 16:52:00,
2013-12-14 12:07:00,79.3,71.0,30.04,SSE,155,9.0,14.0,76,0.00,,,0.00,weatherlink.com 1.10,2013-12-14 17:07:00,
2013-12-14 12:22:00,79.1,71.0,30.03,South,181,7.0,13.0,76,0.00,,,0.00,weatherlink.com 1.10,2013-12-14 17:22:00,
2013-12-14 12:37:00,80.7,71.0,30.02,South,171,9.0,15.0,72,0.00,,,0.00,weatherlink.com 1.10,2013-12-14 17:37:00,
2013-12-14 12:52:00,81.3,71.0,30.00,SSE,151,2.0,10.0,72,0.00,,,0.00,weatherlink.com 1.10,2013-12-14 17:52:00,
2013-12-14 13:07:00,80.6,71.0,29.99,SSW,198,7.0,14.0,73,0.00,,,0.00,weatherlink.com 1.10,2013-12-14 18:07:00,
2013-12-14 13:22:00,80.1,71.0,29.99,South,171,6.0,11.0,73,0.00,,,0.00,weatherlink.com 1.10,2013-12-14 18:22:00,
2013-12-14 13:37:00,80.7,71.0,29.98,South,191,2.0,12.0,73,0.00,,,0.00,weatherlink.com 1.10,2013-12-14 18:37:00,
2013-12-14 13:53:00,82.1,71.0,29.98,SSW,210,1.0,13.0,69,0.00,,,0.00,weatherlink.com 1.10,2013-12-14 18:53:00,
2013-12-14 14:08:00,80.8,71.0,29.97,SSW,194,4.0,10.0,72,0.00,,,0.00,weatherlink.com 1.10,2013-12-14 19:08:00,
2013-12-14 14:23:00,80.4,71.0,29.97,SSE,167,4.0,9.0,73,0.00,,,0.00,weatherlink.com 1.10,2013-12-14 19:23:00,
2013-12-14 14:38:00,80.5,70.0,29.96,South,190,0.0,11.0,71,0.00,,,0.00,weatherlink.com 1.10,2013-12-14 19:38:00,
2013-12-14 14:53:00,80.4,71.0,29.96,SSE,159,0.0,7.0,72,0.00,,,0.00,weatherlink.com 1.10,2013-12-14 19:53:00,
2013-12-14 15:08:00,80.6,70.0,29.96,South,175,0.0,10.0,71,0.00,,,0.00,weatherlink.com 1.10,2013-12-14 20:08:00,
2013-12-14 15:23:00,80.7,70.0,29.96,SSW,200,3.0,14.0,70,0.00,,,0.00,weatherlink.com 1.10,2013-12-14 20:23:00,
2013-12-14 15:38:00,79.1,71.0,29.96,SW,215,0.0,6.0,75,0.00,,,0.00,weatherlink.com 1.10,2013-12-14 20:38:00,
2013-12-14 15:53:00,78.5,72.0,29.96,SW,215,0.0,1.0,79,0.00,,,0.00,weatherlink.com 1.10,2013-12-14 20:53:00,
2013-12-14 16:08:00,78.4,71.0,29.96,SW,215,0.0,1.0,78,0.00,,,0.00,weatherlink.com 1.10,2013-12-14 21:08:00,
2013-12-14 16:23:00,78.2,71.0,29.96,SW,215,0.0,0.0,79,0.00,,,0.00,weatherlink.com 1.10,2013-12-14 21:23:00,
2013-12-14 16:38:00,77.9,72.0,29.96,SW,215,0.0,0.0,83,0.00,,,0.00,weatherlink.com 1.10,2013-12-14 21:38:00,
2013-12-14 16:53:00,77.4,73.0,29.96,SW,215,0.0,0.0,85,0.00,,,0.00,weatherlink.com 1.10,2013-12-14 21:53:00,
2013-12-14 17:08:00,77.3,73.0,29.96,SW,215,4.0,4.0,86,0.00,,,0.00,weatherlink.com 1.10,2013-12-14 22:08:00,
2013-12-14 17:23:00,77.4,69.0,29.96,South,190,2.0,7.0,75,0.00,,,0.00,weatherlink.com 1.10,2013-12-14 22:23:00,
2013-12-14 17:38:00,77.5,69.0,29.97,SSW,212,6.0,8.0,74,0.00,,,0.00,weatherlink.com 1.10,2013-12-14 22:38:00,
2013-12-14 17:53:00,77.1,69.0,29.97,SSW,192,0.0,6.0,76,0.00,,,0.00,weatherlink.com 1.10,2013-12-14 22:53:00,
2013-12-14 18:08:00,76.5,69.0,29.97,SSW,202,0.0,5.0,77,0.00,,,0.00,weatherlink.com 1.10,2013-12-14 23:08:00,
2013-12-14 18:23:00,76.1,69.0,29.96,SSW,193,0.0,4.0,78,0.00,,,0.00,weatherlink.com 1.10,2013-12-14 23:23:00,
2013-12-14 18:38:00,76.0,69.0,29.96,SSW,198,0.0,9.0,78,0.00,,,0.00,weatherlink.com 1.10,2013-12-14 23:38:00,
2013-12-14 18:53:00,75.8,69.0,29.97,SSW,208,0.0,7.0,78,0.00,,,0.00,weatherlink.com 1.10,2013-12-14 23:53:00,
2013-12-14 19:08:00,75.1,69.0,29.97,SSW,207,0.0,2.0,80,0.00,,,0.00,weatherlink.com 1.10,2013-12-15 00:08:00,
2013-12-14 19:23:00,74.4,69.0,29.97,SW,234,1.0,4.0,82,0.00,,,0.00,weatherlink.com 1.10,2013-12-15 00:23:00,
2013-12-14 19:38:00,73.8,69.0,29.97,South,178,0.0,7.0,84,0.00,,,0.00,weatherlink.com 1.10,2013-12-15 00:38:00,
2013-12-14 19:53:00,73.5,69.0,29.97,SSW,201,0.0,9.0,85,0.00,,,0.00,weatherlink.com 1.10,2013-12-15 00:53:00,
2013-12-14 20:08:00,73.7,69.0,29.97,SW,216,0.0,10.0,85,0.00,,,0.00,weatherlink.com 1.10,2013-12-15 01:08:00,
2013-12-14 20:23:00,73.7,69.0,29.97,South,178,5.0,9.0,85,0.00,,,0.00,weatherlink.com 1.10,2013-12-15 01:23:00,
2013-12-14 20:38:00,73.9,70.0,29.97,SSW,212,4.0,12.0,86,0.00,,,0.00,weatherlink.com 1.10,2013-12-15 01:38:00,
2013-12-14 20:53:00,74.2,70.0,29.97,SW,221,0.0,14.0,87,0.00,,,0.00,weatherlink.com 1.10,2013-12-15 01:53:00,
2013-12-14 21:08:00,74.0,70.0,29.97,SSW,202,10.0,10.0,88,0.00,,,0.00,weatherlink.com 1.10,2013-12-15 02:08:00,
2013-12-14 21:23:00,73.7,70.0,29.96,South,182,8.0,10.0,89,0.00,,,0.00,weatherlink.com 1.10,2013-12-15 02:23:00,
2013-12-14 21:38:00,73.6,71.0,29.96,South,169,6.0,11.0,90,0.00,,,0.00,weatherlink.com 1.10,2013-12-15 02:38:00,
2013-12-14 21:53:00,73.4,71.0,29.97,SSE,150,0.0,11.0,91,0.00,,,0.00,weatherlink.com 1.10,2013-12-15 02:53:00,
2013-12-14 22:08:00,73.1,70.0,29.98,SSE,150,0.0,9.0,91,0.00,,,0.00,weatherlink.com 1.10,2013-12-15 03:08:00,
2013-12-14 22:23:00,72.8,70.0,29.98,SSW,207,0.0,9.0,92,0.00,,,0.00,weatherlink.com 1.10,2013-12-15 03:23:00,
2013-12-14 22:38:00,72.5,70.0,29.98,South,177,1.0,9.0,93,0.00,,,0.00,weatherlink.com 1.10,2013-12-15 03:38:00,
2013-12-14 22:53:00,72.4,71.0,29.97,South,175,0.0,10.0,94,0.00,,,0.00,weatherlink.com 1.10,2013-12-15 03:53:00,
2013-12-14 23:08:00,72.2,70.0,29.97,South,187,2.0,9.0,94,0.00,,,0.00,weatherlink.com 1.10,2013-12-15 04:08:00,
2013-12-14 23:23:00,72.1,71.0,29.97,South,189,6.0,8.0,95,0.00,,,0.00,weatherlink.com 1.10,2013-12-15 04:23:00,
2013-12-14 23:38:00,71.8,70.0,29.96,SSW,207,0.0,11.0,95,0.00,,,0.00,weatherlink.com 1.10,2013-12-15 04:38:00,
2013-12-14 23:53:00,71.6,70.0,29.96,SSW,209,3.0,8.0,96,0.00,,,0.00,weatherlink.com 1.10,2013-12-15 04:53:00,